Time;durP1;ratioP1;P1;durP2;ratioP2;P2;SDS_P1;SDS_P2;PMS_P1;PMS_P2;Temp;Humidity;BMP_temperature;BMP_pressure;BME280_temperature;BME280_humidity;BME280_pressure;Samples;Min_cycle;Max_cycle;Signal;HPM_P1;HPM_P2
2023/08/03 00:01:24;;;;;;;8.82;1.40;;;;;;;14.98;100.00;98935.63;5009669;28;20614;-49
2023/08/03 00:03:50;;;;;;;4.25;1.20;;;;;;;14.98;100.00;98938.31;5009980;28;20251;-42
2023/08/03 00:06:15;;;;;;;2.67;1.05;;;;;;;14.98;100.00;98933.78;5029144;28;20199;-45
2023/08/03 00:08:41;;;;;;;3.65;1.02;;;;;;;14.86;100.00;98928.59;5029356;28;20180;-47
2023/08/03 00:11:06;;;;;;;2.70;1.10;;;;;;;14.77;100.00;98927.53;5029615;28;20180;-46
2023/08/03 00:13:32;;;;;;;3.45;1.30;;;;;;;14.69;100.00;98930.03;5029389;28;20172;-47
2023/08/03 00:15:58;;;;;;;4.65;1.10;;;;;;;14.63;100.00;98923.34;5029424;28;20258;-47
2023/08/03 00:18:23;;;;;;;3.85;1.17;;;;;;;14.63;100.00;98936.81;5029171;28;20188;-48
2023/08/03 00:20:50;;;;;;;4.43;1.02;;;;;;;14.71;100.00;98922.66;5024106;22;20704;-46
2023/08/03 00:23:15;;;;;;;3.47;1.10;;;;;;;14.58;100.00;98922.84;5006563;28;20191;-45
2023/08/03 00:25:41;;;;;;;2.58;1.42;;;;;;;14.52;100.00;98920.66;5006648;28;20556;-43
2023/08/03 00:28:06;;;;;;;5.45;1.20;;;;;;;14.58;100.00;98918.34;4982824;28;20195;-43
2023/08/03 00:30:32;;;;;;;3.47;1.50;;;;;;;14.54;100.00;98924.06;4978213;28;20186;-44
2023/08/03 00:32:58;;;;;;;4.18;1.05;;;;;;;14.51;100.00;98918.97;4974316;28;20343;-44
2023/08/03 00:35:23;;;;;;;5.47;1.40;;;;;;;14.48;100.00;98919.22;4973944;28;20623;-44
2023/08/03 00:37:49;;;;;;;4.13;1.17;;;;;;;14.48;100.00;98917.38;4981456;28;20608;-45
2023/08/03 00:40:14;;;;;;;5.65;1.50;;;;;;;14.40;100.00;98911.78;4978050;28;20173;-44
2023/08/03 00:42:40;;;;;;;2.53;0.98;;;;;;;14.34;100.00;98913.19;4980254;28;20204;-44
2023/08/03 00:45:09;;;;;;;4.07;1.30;;;;;;;14.33;100.00;98922.22;4981116;28;20577;-44
2023/08/03 00:47:35;;;;;;;3.55;1.30;;;;;;;14.30;100.00;98917.09;4977428;28;20263;-44
2023/08/03 00:50:01;;;;;;;4.97;1.00;;;;;;;14.27;100.00;98916.50;4978680;28;20193;-44
2023/08/03 00:52:26;;;;;;;3.28;1.13;;;;;;;14.26;100.00;98934.50;4981770;28;20604;-44
2023/08/03 00:54:53;;;;;;;4.90;1.25;;;;;;;14.15;100.00;98921.09;4979702;28;20212;-45
2023/08/03 00:57:19;;;;;;;2.13;1.20;;;;;;;14.19;100.00;98915.31;4978383;28;20321;-45
2023/08/03 00:59:44;;;;;;;5.22;1.30;;;;;;;14.15;100.00;98911.16;4986225;28;20182;-44
2023/08/03 01:02:10;;;;;;;8.07;1.25;;;;;;;14.13;100.00;98917.66;4983393;28;20623;-46
2023/08/03 01:04:35;;;;;;;7.72;1.50;;;;;;;14.11;100.00;98911.56;4987196;28;20281;-44
2023/08/03 01:07:01;;;;;;;2.95;1.52;;;;;;;14.07;100.00;98910.94;4985685;28;20683;-45
2023/08/03 01:09:26;;;;;;;5.72;1.42;;;;;;;14.09;100.00;98916.22;4971676;28;20304;-44
2023/08/03 01:11:52;;;;;;;2.97;1.00;;;;;;;14.12;100.00;98907.88;4981762;28;20196;-46
2023/08/03 01:14:18;;;;;;;4.68;1.55;;;;;;;14.08;100.00;98912.66;4963057;28;20585;-45
2023/08/03 01:16:44;;;;;;;5.05;1.42;;;;;;;14.02;100.00;98913.19;4965506;28;20198;-44
2023/08/03 01:19:13;;;;;;;3.80;1.23;;;;;;;14.01;100.00;98906.06;4973844;28;20192;-45
2023/08/03 01:21:40;;;;;;;6.82;1.85;;;;;;;14.07;100.00;98907.41;4982955;28;20493;-44
2023/08/03 01:24:06;;;;;;;6.70;1.58;;;;;;;14.02;100.00;98908.63;4978163;28;20190;-41
2023/08/03 01:26:32;;;;;;;5.88;1.52;;;;;;;14.06;100.00;98913.75;4968670;28;20189;-40
2023/08/03 01:28:57;;;;;;;8.23;1.70;;;;;;;14.06;100.00;98916.44;4973043;28;20178;-41
2023/08/03 01:31:23;;;;;;;5.50;1.60;;;;;;;14.10;100.00;98913.41;4982693;28;20273;-42
2023/08/03 01:33:49;;;;;;;6.28;1.60;;;;;;;14.02;100.00;98911.34;4980692;28;20169;-41
2023/08/03 01:36:14;;;;;;;7.03;1.50;;;;;;;14.05;100.00;98914.75;4979556;28;20174;-40
2023/08/03 01:38:40;;;;;;;5.45;1.60;;;;;;;14.07;100.00;98910.94;4982841;28;20229;-41
2023/08/03 01:41:07;;;;;;;10.77;2.10;;;;;;;14.09;100.00;98914.38;4968244;28;20177;-40
2023/08/03 01:43:32;;;;;;;5.18;1.25;;;;;;;14.11;100.00;98928.56;4982788;28;20183;-40
2023/08/03 01:45:58;;;;;;;7.40;1.60;;;;;;;14.16;100.00;98922.78;4972278;28;20280;-42
2023/08/03 01:48:23;;;;;;;8.18;1.70;;;;;;;14.17;100.00;98916.44;4970658;28;20193;-40
2023/08/03 01:50:49;;;;;;;6.25;1.38;;;;;;;14.19;100.00;98912.63;4986400;28;20193;-41
2023/08/03 01:53:17;;;;;;;7.07;1.45;;;;;;;14.18;100.00;98913.59;4983831;28;20202;-40
2023/08/03 01:55:45;;;;;;;11.68;1.65;;;;;;;14.22;100.00;98919.59;4981890;28;20261;-40
2023/08/03 01:58:13;;;;;;;6.53;1.30;;;;;;;14.15;100.00;98918.41;4966658;28;20300;-41
2023/08/03 02:00:39;;;;;;;5.80;1.50;;;;;;;14.14;100.00;98900.50;4980947;28;20221;-40
2023/08/03 02:03:04;;;;;;;7.90;1.70;;;;;;;14.13;100.00;98906.91;4983977;28;20182;-41
2023/08/03 02:05:30;;;;;;;5.82;2.05;;;;;;;14.16;100.00;98906.63;4970667;28;20217;-39
2023/08/03 02:07:55;;;;;;;3.85;1.17;;;;;;;14.13;100.00;98907.75;4995005;28;20204;-41
2023/08/03 02:10:23;;;;;;;5.78;1.50;;;;;;;14.16;100.00;98904.78;4983884;28;20588;-40
2023/08/03 02:12:49;;;;;;;4.47;1.20;;;;;;;14.24;100.00;98906.84;4984146;28;20213;-40
2023/08/03 02:15:15;;;;;;;3.72;1.30;;;;;;;14.18;100.00;98896.59;4983332;28;20225;-42
2023/08/03 02:17:42;;;;;;;9.52;1.67;;;;;;;14.17;100.00;98894.88;4984446;28;20209;-40
2023/08/03 02:20:09;;;;;;;7.20;1.45;;;;;;;14.17;100.00;98902.97;4972569;28;20216;-41
2023/08/03 02:22:34;;;;;;;3.30;1.30;;;;;;;14.17;100.00;98892.19;4986142;28;20177;-41
2023/08/03 02:25:00;;;;;;;6.60;1.55;;;;;;;14.14;100.00;98898.66;4965107;28;20198;-42
2023/08/03 02:27:26;;;;;;;6.00;1.60;;;;;;;14.14;100.00;98901.34;4982169;28;20197;-40
2023/08/03 02:29:52;;;;;;;5.72;1.30;;;;;;;14.17;100.00;98895.72;4981957;28;20198;-40
2023/08/03 02:32:19;;;;;;;4.07;1.50;;;;;;;14.20;100.00;98903.53;4985127;28;20631;-41
2023/08/03 02:34:45;;;;;;;4.20;1.40;;;;;;;14.18;100.00;98896.59;4979899;28;20244;-42
2023/08/03 02:37:10;;;;;;;3.42;1.10;;;;;;;14.17;100.00;98902.97;4981510;28;20201;-40
2023/08/03 02:39:37;;;;;;;7.32;1.70;;;;;;;14.22;100.00;98900.72;4984684;28;20181;-41
2023/08/03 02:42:04;;;;;;;2.65;1.50;;;;;;;14.23;100.00;98894.34;4992087;28;20174;-40
2023/08/03 02:44:35;;;;;;;7.38;1.60;;;;;;;14.28;100.00;98893.94;4965314;28;20252;-42
2023/08/03 02:47:01;;;;;;;4.88;1.40;;;;;;;14.30;100.00;98895.56;4981897;28;20206;-41
2023/08/03 02:49:26;;;;;;;5.93;1.40;;;;;;;14.32;100.00;98893.59;4966342;28;20644;-41
2023/08/03 02:51:53;;;;;;;5.75;1.40;;;;;;;14.37;100.00;98899.44;4971344;28;20202;-41
2023/08/03 02:54:25;;;;;;;6.20;1.85;;;;;;;14.37;100.00;98902.13;4993437;28;20218;-40
2023/08/03 02:56:54;;;;;;;5.47;1.90;;;;;;;14.39;100.00;98904.69;4979725;28;20206;-41
2023/08/03 02:59:20;;;;;;;5.30;1.77;;;;;;;14.40;100.00;98907.25;4971073;28;20173;-43
2023/08/03 03:01:45;;;;;;;6.43;1.30;;;;;;;14.40;100.00;98893.78;4981016;28;20260;-40
2023/08/03 03:04:11;;;;;;;3.42;1.60;;;;;;;14.41;100.00;98903.56;4982671;28;20271;-41
2023/08/03 03:06:42;;;;;;;4.00;1.40;;;;;;;14.38;100.00;98905.66;4970910;28;20255;-42
2023/08/03 03:09:10;;;;;;;7.82;1.60;;;;;;;14.40;100.00;98907.25;4967159;28;20272;-42
2023/08/03 03:11:37;;;;;;;5.72;2.00;;;;;;;14.47;100.00;98909.41;4976563;28;20606;-41
2023/08/03 03:14:03;;;;;;;5.80;1.92;;;;;;;14.41;100.00;98902.72;4983462;28;20655;-40
2023/08/03 03:16:28;;;;;;;4.93;1.65;;;;;;;14.42;100.00;98902.56;4996620;28;20209;-39
2023/08/03 03:18:55;;;;;;;4.60;1.52;;;;;;;14.45;100.00;98900.59;4971073;28;20174;-42
2023/08/03 03:21:21;;;;;;;5.80;1.60;;;;;;;14.41;100.00;98900.03;4967232;28;20682;-42
2023/08/03 03:23:47;;;;;;;5.60;1.90;;;;;;;14.40;100.00;98909.94;4992117;28;20206;-40
2023/08/03 03:26:13;;;;;;;6.00;1.83;;;;;;;14.46;100.00;98907.72;4964541;28;20291;-39
2023/08/03 03:28:39;;;;;;;4.07;1.30;;;;;;;14.48;100.00;98901.22;4979669;28;20304;-40
2023/08/03 03:31:05;;;;;;;5.80;1.65;;;;;;;14.48;100.00;98903.91;4985870;28;20181;-40
2023/08/03 03:33:30;;;;;;;3.50;1.52;;;;;;;14.43;100.00;98901.59;4981576;28;20199;-40
2023/08/03 03:36:06;;;;;;;4.03;1.45;;;;;;;14.48;100.00;98913.84;4970379;28;20169;-41
2023/08/03 03:38:32;;;;;;;5.85;2.05;;;;;;;14.44;100.00;98907.84;4979994;28;20218;-41
2023/08/03 03:40:58;;;;;;;7.28;1.95;;;;;;;14.42;100.00;98910.66;4996463;28;20173;-40
2023/08/03 03:43:23;;;;;;;6.90;1.75;;;;;;;14.48;100.00;98905.75;4980128;28;20181;-42
2023/08/03 03:45:49;;;;;;;5.05;1.67;;;;;;;14.45;100.00;98904.16;4967742;28;20251;-40
2023/08/03 03:48:17;;;;;;;8.20;1.90;;;;;;;14.46;100.00;98900.50;4969940;28;20204;-40
2023/08/03 03:50:42;;;;;;;4.45;2.10;;;;;;;14.42;100.00;98917.91;4970233;28;20265;-40
2023/08/03 03:53:08;;;;;;;3.20;1.80;;;;;;;14.48;100.00;98913.84;4980240;28;20288;-41
2023/08/03 03:55:36;;;;;;;5.55;2.47;;;;;;;14.42;100.00;98905.28;4965717;28;20268;-40
2023/08/03 03:58:02;;;;;;;7.35;2.58;;;;;;;14.43;100.00;98908.84;4975721;28;20626;-41
2023/08/03 04:00:28;;;;;;;3.60;2.00;;;;;;;14.51;100.00;98917.09;4978397;28;20181;-39
2023/08/03 04:02:54;;;;;;;5.97;1.90;;;;;;;14.51;100.00;98916.25;4979673;28;20184;-41
2023/08/03 04:05:22;;;;;;;5.32;2.05;;;;;;;14.45;100.00;98912.25;4967693;28;20204;-41
2023/08/03 04:07:48;;;;;;;6.40;2.45;;;;;;;14.42;100.00;98916.06;4969624;28;20606;-40
2023/08/03 04:10:13;;;;;;;4.35;2.03;;;;;;;14.46;100.00;98910.41;4964619;28;20224;-40
2023/08/03 04:12:39;;;;;;;8.02;2.72;;;;;;;14.42;100.00;98913.34;4982371;28;20205;-41
2023/08/03 04:15:05;;;;;;;6.30;2.83;;;;;;;14.42;100.00;98916.06;4982647;28;20683;-40
2023/08/03 04:17:30;;;;;;;5.95;2.50;;;;;;;14.44;100.00;98918.63;4977989;28;20571;-42
2023/08/03 04:19:56;;;;;;;6.43;2.38;;;;;;;14.42;100.00;98921.44;4979425;28;20194;-39
2023/08/03 04:22:21;;;;;;;6.78;2.70;;;;;;;14.40;100.00;98919.88;4981334;28;20185;-41
2023/08/03 04:24:47;;;;;;;6.22;2.28;;;;;;;14.45;100.00;98919.47;4981725;28;20200;-40
2023/08/03 04:27:13;;;;;;;6.72;2.40;;;;;;;14.52;100.00;98920.66;4985032;28;20201;-42
2023/08/03 04:29:40;;;;;;;2.67;2.20;;;;;;;14.58;100.00;98917.47;4997086;28;20194;-41
2023/08/03 04:32:06;;;;;;;8.07;2.60;;;;;;;14.59;100.00;98919.19;4967529;28;20244;-41
2023/08/03 04:34:31;;;;;;;5.25;2.58;;;;;;;14.53;100.00;98914.28;4978558;28;20245;-41
2023/08/03 04:37:03;;;;;;;6.82;3.00;;;;;;;14.55;100.00;98915.06;4978717;28;20256;-40
2023/08/03 04:39:30;;;;;;;6.15;2.95;;;;;;;14.55;100.00;98925.84;4980988;28;20264;-40
2023/08/03 04:41:56;;;;;;;7.03;3.00;;;;;;;14.58;100.00;98921.03;4969694;28;20216;-38
2023/08/03 04:44:23;;;;;;;5.25;2.92;;;;;;;14.60;100.00;98913.66;4962262;28;20197;-41
2023/08/03 04:46:48;;;;;;;7.28;3.15;;;;;;;14.63;100.00;98912.56;4979466;28;20282;-40
2023/08/03 04:49:14;;;;;;;8.75;3.78;;;;;;;14.61;100.00;98914.53;4982335;28;20264;-40
2023/08/03 04:51:46;;;;;;;7.65;3.80;;;;;;;14.62;100.00;98927.00;4967797;28;20173;-41
2023/08/03 04:54:16;;;;;;;6.22;3.22;;;;;;;14.60;100.00;98923.59;4970572;28;20189;-41
2023/08/03 04:56:41;;;;;;;4.97;3.40;;;;;;;14.64;100.00;98922.34;4975167;28;20252;-41
2023/08/03 04:59:07;;;;;;;4.90;3.08;;;;;;;14.70;100.00;98929.91;4979787;28;20287;-41
2023/08/03 05:01:32;;;;;;;6.43;3.50;;;;;;;14.73;100.00;98932.31;4979648;28;20709;-43
2023/08/03 05:04:00;;;;;;;6.22;3.28;;;;;;;14.72;100.00;98929.78;4980333;28;20640;-41
2023/08/03 05:06:27;;;;;;;7.10;4.10;;;;;;;14.72;100.00;98940.56;4963342;28;20272;-43
2023/08/03 05:08:52;;;;;;;7.57;3.22;;;;;;;14.78;100.00;98931.94;4971181;28;20170;-40
2023/08/03 05:11:20;;;;;;;8.18;3.30;;;;;;;14.88;100.00;98929.31;4966240;28;20169;-41
2023/08/03 05:13:45;;;;;;;7.45;3.22;;;;;;;14.91;100.00;98932.59;4979006;28;20277;-40
2023/08/03 05:16:12;;;;;;;6.22;3.33;;;;;;;14.94;100.00;98935.03;4964175;28;20166;-40
2023/08/03 05:18:37;;;;;;;3.92;2.67;;;;;;;15.04;100.00;98937.75;4983806;28;20263;-41
2023/08/03 05:21:03;;;;;;;6.13;3.13;;;;;;;15.00;100.00;98930.97;4976622;28;20287;-41
2023/08/03 05:23:28;;;;;;;7.53;3.00;;;;;;;15.01;100.00;98929.94;4981216;28;20550;-41
2023/08/03 05:25:55;;;;;;;7.10;2.85;;;;;;;15.00;100.00;98930.97;4982195;28;20670;-40
2023/08/03 05:28:22;;;;;;;5.82;2.50;;;;;;;15.04;100.00;98937.75;4981063;28;20201;-39
2023/08/03 05:30:47;;;;;;;3.58;2.33;;;;;;;15.12;100.00;98932.56;4981658;28;20206;-41
2023/08/03 05:33:13;;;;;;;6.45;2.60;;;;;;;15.07;100.00;98937.50;4980685;28;20542;-41
2023/08/03 05:35:38;;;;;;;5.80;2.80;;;;;;;15.07;100.00;98945.59;4978709;28;20193;-42
2023/08/03 05:38:04;;;;;;;9.25;3.15;;;;;;;15.04;100.00;98929.66;4979215;28;20206;-41
2023/08/03 05:40:29;;;;;;;7.40;2.85;;;;;;;15.09;100.00;98934.69;4982639;28;20170;-43
2023/08/03 05:42:55;;;;;;;7.72;2.75;;;;;;;15.20;100.00;98927.34;4979431;28;20174;-42
2023/08/03 05:45:41;;;;;;;6.35;3.15;;;;;;;15.39;100.00;98928.41;4985714;28;20682;-40
2023/08/03 05:48:24;;;;;;;6.00;2.38;;;;;;;15.54;100.00;98929.75;4984021;28;20203;-41
2023/08/03 05:50:52;;;;;;;9.25;2.72;;;;;;;15.67;100.00;98926.81;4983080;28;20185;-41
2023/08/03 05:53:18;;;;;;;4.60;2.45;;;;;;;15.94;100.00;98918.09;4984342;28;20224;-39
2023/08/03 05:55:44;;;;;;;7.93;2.50;;;;;;;16.12;100.00;98918.25;4985205;28;20216;-40
2023/08/03 05:58:13;;;;;;;5.20;2.22;;;;;;;16.16;100.00;98913.41;4981630;28;20189;-42
2023/08/03 06:00:45;;;;;;;7.70;2.35;;;;;;;16.08;100.00;98915.97;4986565;28;20181;-41
2023/08/03 06:03:16;;;;;;;5.63;2.10;;;;;;;16.36;100.00;98900.78;4984115;28;20198;-41
2023/08/03 06:05:42;;;;;;;3.85;2.15;;;;;;;16.48;100.00;98908.56;4981572;28;20220;-41
2023/08/03 06:08:11;;;;;;;6.07;2.67;;;;;;;16.47;100.00;98896.06;4982599;28;20198;-45
2023/08/03 06:10:36;;;;;;;4.35;1.88;;;;;;;16.36;100.00;98887.25;4973791;28;20181;-43
2023/08/03 06:13:02;;;;;;;4.13;1.63;;;;;;;16.40;100.00;98894.94;4978118;28;20244;-44
2023/08/03 06:15:29;;;;;;;5.07;1.77;;;;;;;16.33;100.00;98890.22;4979418;28;20200;-45
2023/08/03 06:18:07;;;;;;;6.60;1.60;;;;;;;16.26;100.00;98888.09;4978076;28;20256;-44
2023/08/03 06:20:34;;;;;;;4.20;1.45;;;;;;;16.28;100.00;98896.06;5008745;23;20226;-47
2023/08/03 06:23:00;;;;;;;4.40;1.98;;;;;;;16.23;100.00;98888.41;4988839;28;20202;-46
2023/08/03 06:25:27;;;;;;;3.78;1.98;;;;;;;16.23;100.00;98887.56;4967084;28;20218;-45
2023/08/03 06:27:52;;;;;;;3.15;1.40;;;;;;;16.17;100.00;98885.41;4981477;28;20193;-47
2023/08/03 06:30:18;;;;;;;6.53;2.03;;;;;;;16.24;100.00;98890.09;4982539;28;20215;-45
2023/08/03 06:32:44;;;;;;;2.97;1.77;;;;;;;16.36;100.00;98889.97;4985734;28;20245;-47
2023/08/03 06:35:42;;;;;;;6.47;1.98;;;;;;;16.36;100.00;98898.06;4985016;28;20200;-47
2023/08/03 06:38:14;;;;;;;3.55;1.35;;;;;;;16.57;100.00;98893.34;4981712;28;20197;-46
2023/08/03 06:40:40;;;;;;;2.45;1.50;;;;;;;16.74;100.00;98897.16;4981082;28;20244;-47
2023/08/03 06:43:06;;;;;;;2.63;1.50;;;;;;;16.61;100.00;98891.19;4976158;28;20257;-46
2023/08/03 06:45:33;;;;;;;5.63;1.52;;;;;;;16.63;100.00;98894.63;4983423;28;20292;-46
2023/08/03 06:47:59;;;;;;;3.60;1.40;;;;;;;16.51;100.00;98880.41;4981343;28;20284;-46
2023/08/03 06:50:29;;;;;;;3.00;1.38;;;;;;;16.53;100.00;98877.56;4972900;28;20178;-46
2023/08/03 06:52:55;;;;;;;2.92;1.48;;;;;;;16.63;100.00;98879.25;4986787;28;20185;-46
2023/08/03 06:55:20;;;;;;;2.80;1.42;;;;;;;16.47;100.00;98897.91;4984162;28;20249;-46
2023/08/03 06:57:46;;;;;;;2.65;1.30;;;;;;;16.43;100.00;98885.69;4985147;28;20232;-45
2023/08/03 07:00:12;;;;;;;2.80;1.30;;;;;;;16.54;100.00;98890.09;4987720;28;20213;-47
2023/08/03 07:02:38;;;;;;;3.20;1.25;;;;;;;16.55;100.00;98880.97;4980504;28;20312;-46
2023/08/03 07:05:04;;;;;;;3.88;1.45;;;;;;;16.58;100.00;98889.66;4981523;28;20206;-46
2023/08/03 07:07:30;;;;;;;3.42;1.48;;;;;;;16.72;100.00;98885.63;4981128;28;20288;-45
2023/08/03 07:09:56;;;;;;;3.65;1.13;;;;;;;16.68;100.00;98886.91;4987754;28;20177;-46
2023/08/03 07:12:21;;;;;;;2.85;1.35;;;;;;;16.74;100.00;98890.91;4990231;28;20196;-46
2023/08/03 07:14:47;;;;;;;1.83;1.20;;;;;;;16.73;100.00;98894.63;4989067;28;20188;-46
2023/08/03 07:17:12;;;;;;;2.30;1.15;;;;;;;16.67;100.00;98891.47;4984746;28;20199;-47
2023/08/03 07:19:38;;;;;;;2.15;0.98;;;;;;;16.77;100.00;98896.88;4986251;28;20676;-46
2023/08/03 07:22:04;;;;;;;1.67;0.98;;;;;;;16.87;100.00;98902.28;4975370;28;20173;-45
2023/08/03 07:24:34;;;;;;;1.30;1.00;;;;;;;16.85;100.00;98898.88;4980524;28;20280;-46
2023/08/03 07:27:02;;;;;;;2.95;1.23;;;;;;;16.81;100.00;98901.00;4982993;28;20193;-46
2023/08/03 07:29:34;;;;;;;2.47;1.13;;;;;;;16.86;100.00;98898.72;4987988;28;20540;-46
2023/08/03 07:32:00;;;;;;;3.13;0.90;;;;;;;16.84;100.00;98916.97;4988046;28;20170;-46
2023/08/03 07:34:26;;;;;;;2.00;0.90;;;;;;;16.77;100.00;98910.41;4980363;28;20174;-46
2023/08/03 07:36:52;;;;;;;3.20;1.13;;;;;;;16.76;100.00;98921.34;4980826;28;20598;-45
2023/08/03 07:39:18;;;;;;;1.80;0.73;;;;;;;16.93;100.00;98915.22;4983905;28;20181;-45
2023/08/03 07:41:44;;;;;;;2.78;0.90;;;;;;;16.97;100.00;98924.78;4986065;28;20186;-46
2023/08/03 07:44:09;;;;;;;1.88;0.70;;;;;;;16.94;100.00;98924.19;4984665;28;20185;-46
2023/08/03 07:46:35;;;;;;;1.88;1.00;;;;;;;16.83;100.00;98919.81;4984671;28;20202;-46
2023/08/03 07:49:00;;;;;;;3.15;1.00;;;;;;;16.81;100.00;98927.22;4985771;28;20181;-47
2023/08/03 07:51:26;;;;;;;1.83;1.10;;;;;;;16.84;100.00;98926.94;4982228;28;20189;-46
2023/08/03 07:53:51;;;;;;;1.48;0.80;;;;;;;16.95;100.00;98931.31;4981637;28;20185;-46
2023/08/03 07:56:18;;;;;;;0.75;0.60;;;;;;;16.93;100.00;98928.75;4983404;28;20632;-47
2023/08/03 07:58:45;;;;;;;1.75;0.90;;;;;;;16.94;100.00;98930.44;4983885;28;20193;-46
2023/08/03 08:01:10;;;;;;;1.90;0.80;;;;;;;16.96;100.00;98931.16;4984141;28;20630;-46
2023/08/03 08:03:38;;;;;;;2.05;0.80;;;;;;;17.17;100.00;98935.53;4985416;28;20190;-45
2023/08/03 08:06:08;;;;;;;2.05;1.00;;;;;;;17.25;100.00;98936.50;4984457;28;20582;-46
2023/08/03 08:08:33;;;;;;;1.23;0.90;;;;;;;17.14;100.00;98938.53;4986048;28;20173;-46
2023/08/03 08:10:59;;;;;;;1.35;0.80;;;;;;;17.00;100.00;98939.84;4986372;28;20220;-46
2023/08/03 08:13:24;;;;;;;6.65;0.98;;;;;;;17.21;100.00;98932.38;4968252;28;20228;-44
2023/08/03 08:15:50;;;;;;;1.30;0.93;;;;;;;17.32;100.00;98938.59;4982199;28;20205;-46
2023/08/03 08:18:15;;;;;;;0.98;0.75;;;;;;;17.57;100.00;98929.81;4983464;28;20202;-46
2023/08/03 08:20:41;;;;;;;0.98;0.90;;;;;;;18.36;100.00;98931.03;4985221;28;20248;-45
2023/08/03 08:23:07;;;;;;;0.98;0.80;;;;;;;19.11;100.00;98923.34;4987017;28;20196;-46
2023/08/03 08:25:37;;;;;;;2.85;0.88;;;;;;;19.17;100.00;98919.13;4983047;28;20209;-46
2023/08/03 08:28:03;;;;;;;0.52;0.52;;;;;;;18.94;100.00;98911.53;4988156;28;20204;-47
2023/08/03 08:30:28;;;;;;;1.00;0.70;;;;;;;18.86;100.00;98927.75;4988480;28;20186;-46
2023/08/03 08:32:53;;;;;;;3.42;0.90;;;;;;;18.73;100.00;98916.44;4983652;28;20630;-46
2023/08/03 08:35:19;;;;;;;1.58;0.80;;;;;;;18.65;100.00;98916.38;4980097;28;20185;-47
2023/08/03 08:37:45;;;;;;;1.40;0.90;;;;;;;19.07;100.00;98918.41;4981337;28;20748;-45
2023/08/03 08:40:11;;;;;;;1.25;0.63;;;;;;;19.67;100.00;98910.22;4984350;28;20177;-46
2023/08/03 08:42:38;;;;;;;1.77;0.70;;;;;;;19.37;100.00;98913.47;4986310;28;20194;-45
2023/08/03 08:45:06;;;;;;;1.95;0.77;;;;;;;18.69;100.00;98909.63;4987167;28;20197;-46
2023/08/03 08:47:32;;;;;;;1.48;0.70;;;;;;;19.83;100.00;98912.19;4977657;28;20256;-46
2023/08/03 08:49:57;;;;;;;1.77;0.70;;;;;;;19.34;100.00;98912.78;4980504;28;20243;-46
2023/08/03 08:52:25;;;;;;;1.20;0.70;;;;;;;19.01;100.00;98917.19;4981615;28;20182;-46
2023/08/03 08:54:51;;;;;;;2.65;0.80;;;;;;;19.55;100.00;98925.13;4983732;28;20256;-46
2023/08/03 08:57:17;;;;;;;1.85;0.60;;;;;;;18.95;100.00;98925.94;4980056;28;20216;-46
2023/08/03 09:00:05;;;;;;;1.33;0.80;;;;;;;18.91;100.00;98924.56;4981161;28;20214;-46
2023/08/03 09:02:31;;;;;;;2.15;0.90;;;;;;;19.82;100.00;98923.22;4983242;28;20166;-45
2023/08/03 09:04:57;;;;;;;0.60;0.50;;;;;;;20.45;100.00;98921.81;4965831;28;20217;-45
2023/08/03 09:07:22;;;;;;;4.22;0.90;;;;;;;20.60;100.00;98919.28;4980909;28;20385;-46
2023/08/03 09:09:48;;;;;;;1.00;0.60;;;;;;;20.53;99.12;98909.06;4977586;28;20182;-46
2023/08/03 09:12:24;;;;;;;1.25;0.70;;;;;;;20.05;97.51;98918.00;4985751;28;20173;-46
2023/08/03 09:14:51;;;;;;;1.33;0.80;;;;;;;20.07;98.15;98927.72;4982473;28;20174;-46
2023/08/03 09:17:18;;;;;;;4.95;0.70;;;;;;;20.63;96.67;98916.25;4982401;28;20205;-45
2023/08/03 09:19:45;;;;;;;2.58;0.70;;;;;;;20.75;95.74;98925.75;4988171;28;20177;-45
2023/08/03 09:22:11;;;;;;;2.95;0.60;;;;;;;20.36;95.02;98931.84;4987117;28;20189;-47
2023/08/03 09:24:37;;;;;;;2.65;0.73;;;;;;;20.04;95.30;98938.91;4985774;28;20252;-46
2023/08/03 09:27:03;;;;;;;1.85;0.70;;;;;;;20.41;95.03;98934.91;4986807;28;20202;-45
2023/08/03 09:29:30;;;;;;;0.60;0.50;;;;;;;20.67;94.37;98929.34;4986190;28;20191;-46
2023/08/03 09:32:03;;;;;;;1.10;0.73;;;;;;;21.53;92.26;98924.28;4986404;28;20430;-46
2023/08/03 09:34:40;;;;;;;1.33;0.70;;;;;;;21.73;88.50;98927.41;4985655;28;20183;-46
2023/08/03 09:37:07;;;;;;;1.27;0.70;;;;;;;21.57;86.04;98910.13;4983459;28;20684;-46
2023/08/03 09:39:34;;;;;;;2.42;0.80;;;;;;;21.33;84.67;98915.63;4988677;28;20209;-46
2023/08/03 09:42:06;;;;;;;1.92;0.65;;;;;;;21.04;84.72;98921.66;4988512;28;20252;-46
2023/08/03 09:44:36;;;;;;;1.25;0.45;;;;;;;20.28;85.31;98942.69;4992540;28;20177;-46
2023/08/03 09:47:05;;;;;;;1.63;0.80;;;;;;;20.22;88.29;98960.53;4983701;28;20712;-45
2023/08/03 09:49:32;;;;;;;2.10;0.70;;;;;;;20.43;90.48;98967.38;4969800;28;20200;-46
2023/08/03 09:52:05;;;;;;;4.15;1.00;;;;;;;20.05;92.12;98985.97;4985953;28;20177;-46
2023/08/03 09:54:55;;;;;;;5.38;1.23;;;;;;;19.35;96.62;98993.25;4983862;28;20199;-46
2023/08/03 09:57:23;;;;;;;6.15;1.55;;;;;;;18.85;100.00;98996.63;4983366;28;20315;-46
2023/08/03 09:59:54;;;;;;;4.22;1.65;;;;;;;18.98;100.00;99000.75;4982003;28;20229;-45
2023/08/03 10:02:23;;;;;;;7.97;1.77;;;;;;;18.80;100.00;99008.94;4988102;28;20209;-46
2023/08/03 10:04:53;;;;;;;7.57;1.58;;;;;;;18.92;100.00;99015.84;4974688;28;20244;-47
2023/08/03 10:07:22;;;;;;;6.70;1.58;;;;;;;18.34;100.00;99014.38;4984500;28;20207;-46
2023/08/03 10:09:53;;;;;;;7.60;1.30;;;;;;;18.30;100.00;99022.00;4972822;28;20184;-45
2023/08/03 10:12:24;;;;;;;4.82;1.10;;;;;;;18.30;100.00;99024.69;4981580;28;20570;-46
2023/08/03 10:14:54;;;;;;;6.60;1.27;;;;;;;18.60;100.00;99030.75;4978035;28;20173;-46
2023/08/03 10:17:20;;;;;;;4.72;1.30;;;;;;;18.78;100.00;99044.34;4980540;28;20251;-47
2023/08/03 10:19:47;;;;;;;3.10;1.13;;;;;;;18.80;100.00;99050.47;4979029;28;20273;-48
2023/08/03 10:22:13;;;;;;;8.73;1.55;;;;;;;18.60;100.00;99049.75;4976331;28;20181;-47
2023/08/03 10:24:38;;;;;;;6.40;1.40;;;;;;;18.37;100.00;99059.34;4977251;28;20507;-45
2023/08/03 10:27:18;;;;;;;1.98;1.10;;;;;;;18.62;100.00;99057.75;4981163;28;20251;-47
2023/08/03 10:29:50;;;;;;;1.65;1.15;;;;;;;18.46;100.00;99056.56;4979354;28;20260;-48
2023/08/03 10:32:21;;;;;;;2.90;1.30;;;;;;;18.53;100.00;99054.94;4981513;28;20770;-47
2023/08/03 10:34:47;;;;;;;2.35;1.20;;;;;;;18.50;100.00;99059.81;4981734;28;20246;-48
2023/08/03 10:37:13;;;;;;;4.28;1.50;;;;;;;18.60;100.00;99057.03;4978802;28;20205;-46
2023/08/03 10:39:48;;;;;;;2.35;1.10;;;;;;;18.74;100.00;99065.50;4983856;28;20655;-48
2023/08/03 10:42:24;;;;;;;3.00;1.40;;;;;;;18.63;100.00;99060.31;4979184;28;20264;-48
2023/08/03 10:44:50;;;;;;;2.55;1.52;;;;;;;18.39;100.00;99060.91;4978835;28;20193;-47
2023/08/03 10:47:27;;;;;;;2.50;1.30;;;;;;;18.47;100.00;99066.38;4980357;28;20206;-48
2023/08/03 10:49:54;;;;;;;5.28;1.80;;;;;;;18.56;100.00;99069.19;4979680;28;20282;-47
2023/08/03 10:52:30;;;;;;;2.85;1.80;;;;;;;18.25;100.00;99075.78;4984279;28;20193;-46
2023/08/03 10:54:59;;;;;;;4.07;2.67;;;;;;;17.83;100.00;99091.69;4981517;28;20177;-47
2023/08/03 10:57:28;;;;;;;3.40;2.72;;;;;;;17.82;100.00;99088.13;4982292;28;20248;-47
2023/08/03 10:59:56;;;;;;;3.42;3.10;;;;;;;17.90;100.00;99107.19;4970386;28;20228;-47
2023/08/03 11:02:25;;;;;;;3.78;3.47;;;;;;;17.84;100.00;99107.78;4978530;28;20174;-46
2023/08/03 11:05:03;;;;;;;4.13;3.75;;;;;;;17.90;100.00;99101.75;4975493;28;20330;-45
2023/08/03 11:07:32;;;;;;;6.45;4.00;;;;;;;18.03;100.00;99109.56;4979005;28;20612;-47
2023/08/03 11:10:00;;;;;;;5.22;3.63;;;;;;;18.05;100.00;99110.28;4975839;28;20197;-48
2023/08/03 11:12:27;;;;;;;5.43;3.28;;;;;;;18.23;100.00;99118.47;4977405;28;20203;-48
2023/08/03 11:14:55;;;;;;;3.42;3.03;;;;;;;18.31;100.00;99112.31;4981163;28;20218;-47
2023/08/03 11:17:28;;;;;;;3.67;2.50;;;;;;;18.17;100.00;99126.34;4978215;28;20197;-47
2023/08/03 11:19:55;;;;;;;3.75;2.55;;;;;;;18.49;100.00;99131.31;4981372;28;20205;-47
2023/08/03 11:22:22;;;;;;;3.90;2.47;;;;;;;18.47;100.00;99131.47;4983373;28;20749;-46
2023/08/03 11:24:56;;;;;;;2.83;2.10;;;;;;;18.70;100.00;99137.34;4981296;28;20641;-46
2023/08/03 11:27:22;;;;;;;2.50;2.30;;;;;;;18.90;100.00;99140.81;4974857;28;20285;-46